sensor_id;sensor_type;location;lat;lon;timestamp;temperature;humidity
8595;DHT22;4335;48.860;9.198;2024-01-30T00:01:27;4.70;99.90
8595;DHT22;4335;48.860;9.198;2024-01-30T00:03:54;4.70;99.90
8595;DHT22;4335;48.860;9.198;2024-01-30T00:06:27;4.70;99.90
8595;DHT22;4335;48.860;9.198;2024-01-30T00:08:55;4.70;99.90
8595;DHT22;4335;48.860;9.198;2024-01-30T00:11:22;4.60;99.90
8595;DHT22;4335;48.860;9.198;2024-01-30T00:13:55;4.60;99.90
8595;DHT22;4335;48.860;9.198;2024-01-30T00:16:30;4.60;99.90
8595;DHT22;4335;48.860;9.198;2024-01-30T00:19:00;4.60;99.90
8595;DHT22;4335;48.860;9.198;2024-01-30T00:21:29;4.60;99.90
8595;DHT22;4335;48.860;9.198;2024-01-30T00:24:00;4.60;99.90
8595;DHT22;4335;48.860;9.198;2024-01-30T00:26:30;4.60;99.90
8595;DHT22;4335;48.860;9.198;2024-01-30T00:29:02;4.60;99.90
8595;DHT22;4335;48.860;9.198;2024-01-30T00:31:29;4.50;99.90
8595;DHT22;4335;48.860;9.198;2024-01-30T00:33:57;4.50;99.90
8595;DHT22;4335;48.860;9.198;2024-01-30T00:36:27;4.50;99.90
8595;DHT22;4335;48.860;9.198;2024-01-30T00:38:56;4.50;99.90
8595;DHT22;4335;48.860;9.198;2024-01-30T00:41:23;4.40;99.90
8595;DHT22;4335;48.860;9.198;2024-01-30T00:43:53;4.50;99.90
8595;DHT22;4335;48.860;9.198;2024-01-30T00:46:22;4.40;99.90
8595;DHT22;4335;48.860;9.198;2024-01-30T00:48:52;4.40;99.90
8595;DHT22;4335;48.860;9.198;2024-01-30T00:51:23;4.40;99.90
8595;DHT22;4335;48.860;9.198;2024-01-30T00:54:00;4.40;99.90
8595;DHT22;4335;48.860;9.198;2024-01-30T00:56:27;4.30;99.90
8595;DHT22;4335;48.860;9.198;2024-01-30T00:59:05;4.30;99.90
8595;DHT22;4335;48.860;9.198;2024-01-30T01:01:34;4.40;99.90
8595;DHT22;4335;48.860;9.198;2024-01-30T01:04:05;4.40;99.90
8595;DHT22;4335;48.860;9.198;2024-01-30T01:06:33;4.40;99.90
8595;DHT22;4335;48.860;9.198;2024-01-30T01:09:00;4.40;99.90
8595;DHT22;4335;48.860;9.198;2024-01-30T01:11:33;4.40;99.90
8595;DHT22;4335;48.860;9.198;2024-01-30T01:14:01;4.40;99.90
8595;DHT22;4335;48.860;9.198;2024-01-30T01:16:28;4.40;99.90
8595;DHT22;4335;48.860;9.198;2024-01-30T01:18:57;4.40;99.90
8595;DHT22;4335;48.860;9.198;2024-01-30T01:21:26;4.40;99.90
8595;DHT22;4335;48.860;9.198;2024-01-30T01:23:59;4.40;99.90
8595;DHT22;4335;48.860;9.198;2024-01-30T01:26:30;4.40;99.90
8595;DHT22;4335;48.860;9.198;2024-01-30T01:29:00;4.40;99.90
8595;DHT22;4335;48.860;9.198;2024-01-30T01:31:30;4.30;99.90
8595;DHT22;4335;48.860;9.198;2024-01-30T01:33:59;4.30;99.90
8595;DHT22;4335;48.860;9.198;2024-01-30T01:36:29;4.40;99.90
8595;DHT22;4335;48.860;9.198;2024-01-30T01:39:03;4.40;99.90
8595;DHT22;4335;48.860;9.198;2024-01-30T01:41:38;4.30;99.90
8595;DHT22;4335;48.860;9.198;2024-01-30T01:44:05;4.30;99.90
8595;DHT22;4335;48.860;9.198;2024-01-30T01:46:35;4.30;99.90
8595;DHT22;4335;48.860;9.198;2024-01-30T01:49:08;4.30;99.90
8595;DHT22;4335;48.860;9.198;2024-01-30T01:51:36;4.30;99.90
8595;DHT22;4335;48.860;9.198;2024-01-30T01:54:13;4.30;99.90
8595;DHT22;4335;48.860;9.198;2024-01-30T01:56:56;4.20;99.90
8595;DHT22;4335;48.860;9.198;2024-01-30T01:59:27;4.20;99.90
8595;DHT22;4335;48.860;9.198;2024-01-30T02:01:56;4.20;99.90
8595;DHT22;4335;48.860;9.198;2024-01-30T02:04:25;4.10;99.90
8595;DHT22;4335;48.860;9.198;2024-01-30T02:06:52;4.10;99.90
8595;DHT22;4335;48.860;9.198;2024-01-30T02:09:32;4.10;99.90
8595;DHT22;4335;48.860;9.198;2024-01-30T02:12:08;4.10;99.90
8595;DHT22;4335;48.860;9.198;2024-01-30T02:14:47;4.00;99.90
8595;DHT22;4335;48.860;9.198;2024-01-30T02:17:18;4.00;99.90
8595;DHT22;4335;48.860;9.198;2024-01-30T02:19:47;4.00;99.90
8595;DHT22;4335;48.860;9.198;2024-01-30T02:22:16;4.00;99.90
8595;DHT22;4335;48.860;9.198;2024-01-30T02:24:44;4.00;99.90
8595;DHT22;4335;48.860;9.198;2024-01-30T02:27:11;3.90;99.90
8595;DHT22;4335;48.860;9.198;2024-01-30T02:29:39;3.90;99.90
8595;DHT22;4335;48.860;9.198;2024-01-30T02:32:07;3.90;99.90
8595;DHT22;4335;48.860;9.198;2024-01-30T02:34:34;3.90;99.90
8595;DHT22;4335;48.860;9.198;2024-01-30T02:37:02;3.80;99.90
8595;DHT22;4335;48.860;9.198;2024-01-30T02:39:34;3.80;99.90
8595;DHT22;4335;48.860;9.198;2024-01-30T02:42:05;3.80;99.90
8595;DHT22;4335;48.860;9.198;2024-01-30T02:44:35;3.80;99.90
8595;DHT22;4335;48.860;9.198;2024-01-30T02:47:04;3.80;99.90
8595;DHT22;4335;48.860;9.198;2024-01-30T02:49:32;3.80;99.90
8595;DHT22;4335;48.860;9.198;2024-01-30T02:52:02;3.70;99.90
8595;DHT22;4335;48.860;9.198;2024-01-30T02:54:29;3.70;99.90
8595;DHT22;4335;48.860;9.198;2024-01-30T02:57:01;3.70;99.90
8595;DHT22;4335;48.860;9.198;2024-01-30T02:59:29;3.60;99.90
8595;DHT22;4335;48.860;9.198;2024-01-30T03:02:01;3.60;99.90
8595;DHT22;4335;48.860;9.198;2024-01-30T03:04:29;3.60;99.90
8595;DHT22;4335;48.860;9.198;2024-01-30T03:07:09;3.60;99.90
8595;DHT22;4335;48.860;9.198;2024-01-30T03:09:42;3.50;99.90
8595;DHT22;4335;48.860;9.198;2024-01-30T03:12:11;3.60;99.90
8595;DHT22;4335;48.860;9.198;2024-01-30T03:14:45;3.50;99.90
8595;DHT22;4335;48.860;9.198;2024-01-30T03:17:12;3.60;99.90
8595;DHT22;4335;48.860;9.198;2024-01-30T03:19:43;3.60;99.90
8595;DHT22;4335;48.860;9.198;2024-01-30T03:22:16;3.60;99.90
8595;DHT22;4335;48.860;9.198;2024-01-30T03:24:47;3.60;99.90
8595;DHT22;4335;48.860;9.198;2024-01-30T03:27:16;3.50;99.90
8595;DHT22;4335;48.860;9.198;2024-01-30T03:29:46;3.50;99.90
8595;DHT22;4335;48.860;9.198;2024-01-30T03:32:16;3.50;99.90
8595;DHT22;4335;48.860;9.198;2024-01-30T03:34:44;3.60;99.90
8595;DHT22;4335;48.860;9.198;2024-01-30T03:37:14;3.60;99.90
8595;DHT22;4335;48.860;9.198;2024-01-30T03:39:41;3.60;99.90
8595;DHT22;4335;48.860;9.198;2024-01-30T03:42:12;3.60;99.90
8595;DHT22;4335;48.860;9.198;2024-01-30T03:44:43;3.60;99.90
8595;DHT22;4335;48.860;9.198;2024-01-30T03:47:16;3.60;99.90
8595;DHT22;4335;48.860;9.198;2024-01-30T03:49:49;3.60;99.90
8595;DHT22;4335;48.860;9.198;2024-01-30T03:52:26;3.60;99.90
8595;DHT22;4335;48.860;9.198;2024-01-30T03:54:54;3.60;99.90
8595;DHT22;4335;48.860;9.198;2024-01-30T03:57:21;3.50;99.90
8595;DHT22;4335;48.860;9.198;2024-01-30T03:59:53;3.50;99.90
8595;DHT22;4335;48.860;9.198;2024-01-30T04:02:24;3.50;99.90
8595;DHT22;4335;48.860;9.198;2024-01-30T04:04:52;3.50;99.90
8595;DHT22;4335;48.860;9.198;2024-01-30T04:07:19;3.40;99.90
8595;DHT22;4335;48.860;9.198;2024-01-30T04:09:46;3.40;99.90
8595;DHT22;4335;48.860;9.198;2024-01-30T04:12:17;3.40;99.90
8595;DHT22;4335;48.860;9.198;2024-01-30T04:14:44;3.40;99.90
8595;DHT22;4335;48.860;9.198;2024-01-30T04:17:16;3.40;99.90
8595;DHT22;4335;48.860;9.198;2024-01-30T04:19:46;3.30;99.90
8595;DHT22;4335;48.860;9.198;2024-01-30T04:22:16;3.30;99.90
8595;DHT22;4335;48.860;9.198;2024-01-30T04:24:44;3.30;99.90
8595;DHT22;4335;48.860;9.198;2024-01-30T04:27:11;3.30;99.90
8595;DHT22;4335;48.860;9.198;2024-01-30T04:29:49;3.30;99.90
8595;DHT22;4335;48.860;9.198;2024-01-30T04:32:18;3.30;99.90
8595;DHT22;4335;48.860;9.198;2024-01-30T04:34:45;3.20;99.90
8595;DHT22;4335;48.860;9.198;2024-01-30T04:37:16;3.30;99.90
8595;DHT22;4335;48.860;9.198;2024-01-30T04:39:49;3.30;99.90
8595;DHT22;4335;48.860;9.198;2024-01-30T04:42:23;3.20;99.90
8595;DHT22;4335;48.860;9.198;2024-01-30T04:44:53;3.20;99.90
8595;DHT22;4335;48.860;9.198;2024-01-30T04:47:23;3.20;99.90
8595;DHT22;4335;48.860;9.198;2024-01-30T04:49:53;3.30;99.90
8595;DHT22;4335;48.860;9.198;2024-01-30T04:52:21;3.30;99.90
8595;DHT22;4335;48.860;9.198;2024-01-30T04:54:54;3.30;99.90
8595;DHT22;4335;48.860;9.198;2024-01-30T04:57:21;3.30;99.90
8595;DHT22;4335;48.860;9.198;2024-01-30T04:59:49;3.30;99.90
8595;DHT22;4335;48.860;9.198;2024-01-30T05:02:16;3.20;99.90
8595;DHT22;4335;48.860;9.198;2024-01-30T05:04:48;3.20;99.90
8595;DHT22;4335;48.860;9.198;2024-01-30T05:07:15;3.20;99.90
8595;DHT22;4335;48.860;9.198;2024-01-30T05:09:43;3.20;99.90
8595;DHT22;4335;48.860;9.198;2024-01-30T05:12:12;3.10;99.90
8595;DHT22;4335;48.860;9.198;2024-01-30T05:14:40;3.20;99.90
8595;DHT22;4335;48.860;9.198;2024-01-30T05:17:07;3.20;99.90
8595;DHT22;4335;48.860;9.198;2024-01-30T05:19:39;3.20;99.90
8595;DHT22;4335;48.860;9.198;2024-01-30T05:22:14;3.10;99.90
8595;DHT22;4335;48.860;9.198;2024-01-30T05:24:43;3.20;99.90
8595;DHT22;4335;48.860;9.198;2024-01-30T05:27:11;3.20;99.90
8595;DHT22;4335;48.860;9.198;2024-01-30T05:29:40;3.10;99.90
8595;DHT22;4335;48.860;9.198;2024-01-30T05:32:07;3.20;99.90
8595;DHT22;4335;48.860;9.198;2024-01-30T05:34:44;3.20;99.90
8595;DHT22;4335;48.860;9.198;2024-01-30T05:37:13;3.20;99.90
8595;DHT22;4335;48.860;9.198;2024-01-30T05:39:42;3.20;99.90
8595;DHT22;4335;48.860;9.198;2024-01-30T05:42:21;3.20;99.90
8595;DHT22;4335;48.860;9.198;2024-01-30T05:44:49;3.20;99.90
8595;DHT22;4335;48.860;9.198;2024-01-30T05:47:19;3.20;99.90
8595;DHT22;4335;48.860;9.198;2024-01-30T05:49:53;3.30;99.90
8595;DHT22;4335;48.860;9.198;2024-01-30T05:52:32;3.30;99.90
8595;DHT22;4335;48.860;9.198;2024-01-30T05:55:02;3.40;99.90
8595;DHT22;4335;48.860;9.198;2024-01-30T05:57:30;3.50;99.90
8595;DHT22;4335;48.860;9.198;2024-01-30T05:59:58;3.50;99.90
8595;DHT22;4335;48.860;9.198;2024-01-30T06:02:25;3.60;99.90
8595;DHT22;4335;48.860;9.198;2024-01-30T06:04:52;3.60;99.90
8595;DHT22;4335;48.860;9.198;2024-01-30T06:07:20;3.70;99.90
8595;DHT22;4335;48.860;9.198;2024-01-30T06:09:52;3.80;99.90
8595;DHT22;4335;48.860;9.198;2024-01-30T06:12:20;3.80;99.90
8595;DHT22;4335;48.860;9.198;2024-01-30T06:14:47;3.90;99.90
8595;DHT22;4335;48.860;9.198;2024-01-30T06:17:20;3.90;99.90
8595;DHT22;4335;48.860;9.198;2024-01-30T06:19:53;3.90;99.90
8595;DHT22;4335;48.860;9.198;2024-01-30T06:22:25;3.90;99.90
8595;DHT22;4335;48.860;9.198;2024-01-30T06:24:54;3.90;99.90
8595;DHT22;4335;48.860;9.198;2024-01-30T06:27:24;3.80;99.90
8595;DHT22;4335;48.860;9.198;2024-01-30T06:29:52;3.80;99.90
8595;DHT22;4335;48.860;9.198;2024-01-30T06:32:22;3.80;99.90
8595;DHT22;4335;48.860;9.198;2024-01-30T06:34:53;3.80;99.90
8595;DHT22;4335;48.860;9.198;2024-01-30T06:37:20;3.80;99.90
8595;DHT22;4335;48.860;9.198;2024-01-30T06:39:50;3.80;99.90
8595;DHT22;4335;48.860;9.198;2024-01-30T06:42:27;3.80;99.90
8595;DHT22;4335;48.860;9.198;2024-01-30T06:44:54;3.80;99.90
8595;DHT22;4335;48.860;9.198;2024-01-30T06:47:31;3.80;99.90
8595;DHT22;4335;48.860;9.198;2024-01-30T06:49:58;3.70;99.90
8595;DHT22;4335;48.860;9.198;2024-01-30T06:52:26;3.70;99.90
8595;DHT22;4335;48.860;9.198;2024-01-30T06:54:53;3.60;99.90
8595;DHT22;4335;48.860;9.198;2024-01-30T06:57:25;3.60;99.90
8595;DHT22;4335;48.860;9.198;2024-01-30T06:59:57;3.50;99.90
8595;DHT22;4335;48.860;9.198;2024-01-30T07:02:24;3.40;99.90
8595;DHT22;4335;48.860;9.198;2024-01-30T07:04:51;3.40;99.90
8595;DHT22;4335;48.860;9.198;2024-01-30T07:07:21;3.40;99.90
8595;DHT22;4335;48.860;9.198;2024-01-30T07:09:51;3.40;99.90
8595;DHT22;4335;48.860;9.198;2024-01-30T07:12:22;3.40;99.90
8595;DHT22;4335;48.860;9.198;2024-01-30T07:14:54;3.40;99.90
8595;DHT22;4335;48.860;9.198;2024-01-30T07:17:25;3.40;99.90
8595;DHT22;4335;48.860;9.198;2024-01-30T07:19:52;3.50;99.90
8595;DHT22;4335;48.860;9.198;2024-01-30T07:22:22;3.50;99.90
8595;DHT22;4335;48.860;9.198;2024-01-30T07:24:53;3.50;99.90
8595;DHT22;4335;48.860;9.198;2024-01-30T07:27:23;3.50;99.90
8595;DHT22;4335;48.860;9.198;2024-01-30T07:29:52;3.60;99.90
8595;DHT22;4335;48.860;9.198;2024-01-30T07:32:28;3.60;99.90
8595;DHT22;4335;48.860;9.198;2024-01-30T07:34:56;3.70;99.90
8595;DHT22;4335;48.860;9.198;2024-01-30T07:37:26;3.70;99.90
8595;DHT22;4335;48.860;9.198;2024-01-30T07:39:57;3.70;99.90
8595;DHT22;4335;48.860;9.198;2024-01-30T07:42:24;3.80;99.90
8595;DHT22;4335;48.860;9.198;2024-01-30T07:44:54;3.80;99.90
8595;DHT22;4335;48.860;9.198;2024-01-30T07:47:21;3.90;99.90
8595;DHT22;4335;48.860;9.198;2024-01-30T07:49:48;3.90;99.90
8595;DHT22;4335;48.860;9.198;2024-01-30T07:52:16;3.90;99.90
8595;DHT22;4335;48.860;9.198;2024-01-30T07:54:49;4.00;99.90
8595;DHT22;4335;48.860;9.198;2024-01-30T07:57:17;4.00;99.90
8595;DHT22;4335;48.860;9.198;2024-01-30T07:59:55;4.00;99.90
8595;DHT22;4335;48.860;9.198;2024-01-30T08:02:30;4.00;99.90
8595;DHT22;4335;48.860;9.198;2024-01-30T08:04:59;4.10;99.90
8595;DHT22;4335;48.860;9.198;2024-01-30T08:07:27;4.20;99.90
8595;DHT22;4335;48.860;9.198;2024-01-30T08:09:55;4.20;99.90
8595;DHT22;4335;48.860;9.198;2024-01-30T08:12:22;4.20;99.90
8595;DHT22;4335;48.860;9.198;2024-01-30T08:14:54;4.30;99.90
8595;DHT22;4335;48.860;9.198;2024-01-30T08:17:22;4.40;99.90
8595;DHT22;4335;48.860;9.198;2024-01-30T08:19:49;4.40;99.90
8595;DHT22;4335;48.860;9.198;2024-01-30T08:22:17;4.50;99.90
8595;DHT22;4335;48.860;9.198;2024-01-30T08:24:44;4.60;99.90
8595;DHT22;4335;48.860;9.198;2024-01-30T08:27:17;4.70;99.90
8595;DHT22;4335;48.860;9.198;2024-01-30T08:29:51;4.80;99.90
8595;DHT22;4335;48.860;9.198;2024-01-30T08:32:20;4.90;99.90
8595;DHT22;4335;48.860;9.198;2024-01-30T08:34:47;5.10;99.90
8595;DHT22;4335;48.860;9.198;2024-01-30T08:37:17;5.20;99.90
8595;DHT22;4335;48.860;9.198;2024-01-30T08:39:45;5.30;99.90
8595;DHT22;4335;48.860;9.198;2024-01-30T08:42:21;5.40;99.90
8595;DHT22;4335;48.860;9.198;2024-01-30T08:44:49;5.50;99.90
8595;DHT22;4335;48.860;9.198;2024-01-30T08:47:18;5.70;99.90
8595;DHT22;4335;48.860;9.198;2024-01-30T08:49:52;5.70;99.90
8595;DHT22;4335;48.860;9.198;2024-01-30T08:52:22;5.90;99.90
8595;DHT22;4335;48.860;9.198;2024-01-30T08:54:49;5.90;99.90
8595;DHT22;4335;48.860;9.198;2024-01-30T08:57:23;6.00;99.90
8595;DHT22;4335;48.860;9.198;2024-01-30T08:59:50;6.10;99.90
8595;DHT22;4335;48.860;9.198;2024-01-30T09:02:22;6.10;99.90
8595;DHT22;4335;48.860;9.198;2024-01-30T09:04:49;6.10;99.90
8595;DHT22;4335;48.860;9.198;2024-01-30T09:07:16;6.20;99.90
8595;DHT22;4335;48.860;9.198;2024-01-30T09:09:44;6.20;99.90
8595;DHT22;4335;48.860;9.198;2024-01-30T09:12:11;6.20;99.90
8595;DHT22;4335;48.860;9.198;2024-01-30T09:14:39;6.30;99.90
8595;DHT22;4335;48.860;9.198;2024-01-30T09:17:07;6.40;99.90
8595;DHT22;4335;48.860;9.198;2024-01-30T09:19:41;6.40;99.90
8595;DHT22;4335;48.860;9.198;2024-01-30T09:22:09;6.50;99.90
8595;DHT22;4335;48.860;9.198;2024-01-30T09:24:39;6.60;99.90
8595;DHT22;4335;48.860;9.198;2024-01-30T09:27:07;6.70;99.90
8595;DHT22;4335;48.860;9.198;2024-01-30T09:29:37;6.80;99.90
8595;DHT22;4335;48.860;9.198;2024-01-30T09:32:08;6.80;99.90
8595;DHT22;4335;48.860;9.198;2024-01-30T09:34:39;6.90;99.90
8595;DHT22;4335;48.860;9.198;2024-01-30T09:37:08;7.00;99.90
8595;DHT22;4335;48.860;9.198;2024-01-30T09:39:36;7.10;99.90
8595;DHT22;4335;48.860;9.198;2024-01-30T09:42:20;7.20;99.90
8595;DHT22;4335;48.860;9.198;2024-01-30T09:44:51;7.30;99.90
8595;DHT22;4335;48.860;9.198;2024-01-30T09:47:26;7.30;99.90
8595;DHT22;4335;48.860;9.198;2024-01-30T09:49:55;7.50;99.90
8595;DHT22;4335;48.860;9.198;2024-01-30T09:52:28;7.50;99.90
8595;DHT22;4335;48.860;9.198;2024-01-30T09:55:03;7.60;99.90
8595;DHT22;4335;48.860;9.198;2024-01-30T09:57:30;7.70;99.90
8595;DHT22;4335;48.860;9.198;2024-01-30T09:59:58;7.80;99.90
8595;DHT22;4335;48.860;9.198;2024-01-30T10:02:31;7.80;99.90
8595;DHT22;4335;48.860;9.198;2024-01-30T10:05:02;7.90;99.90
8595;DHT22;4335;48.860;9.198;2024-01-30T10:07:31;8.00;99.90
8595;DHT22;4335;48.860;9.198;2024-01-30T10:09:58;8.10;99.90
8595;DHT22;4335;48.860;9.198;2024-01-30T10:12:26;8.10;99.90
8595;DHT22;4335;48.860;9.198;2024-01-30T10:14:56;8.20;99.90
8595;DHT22;4335;48.860;9.198;2024-01-30T10:17:27;8.40;99.90
8595;DHT22;4335;48.860;9.198;2024-01-30T10:19:54;8.40;99.90
8595;DHT22;4335;48.860;9.198;2024-01-30T10:22:28;8.50;99.90
8595;DHT22;4335;48.860;9.198;2024-01-30T10:24:56;8.70;99.90
8595;DHT22;4335;48.860;9.198;2024-01-30T10:27:25;8.80;99.90
8595;DHT22;4335;48.860;9.198;2024-01-30T10:29:53;8.90;99.90
8595;DHT22;4335;48.860;9.198;2024-01-30T10:32:21;8.90;99.90
8595;DHT22;4335;48.860;9.198;2024-01-30T10:34:48;9.00;99.90
8595;DHT22;4335;48.860;9.198;2024-01-30T10:37:16;9.10;99.90
8595;DHT22;4335;48.860;9.198;2024-01-30T10:39:45;9.10;99.90
8595;DHT22;4335;48.860;9.198;2024-01-30T10:42:18;9.20;99.90
8595;DHT22;4335;48.860;9.198;2024-01-30T10:44:54;9.30;99.90
8595;DHT22;4335;48.860;9.198;2024-01-30T10:47:27;9.40;99.90
8595;DHT22;4335;48.860;9.198;2024-01-30T10:49:56;9.60;99.90
8595;DHT22;4335;48.860;9.198;2024-01-30T10:52:24;9.70;99.90
8595;DHT22;4335;48.860;9.198;2024-01-30T10:54:53;9.70;99.90
8595;DHT22;4335;48.860;9.198;2024-01-30T10:57:23;9.80;99.90
8595;DHT22;4335;48.860;9.198;2024-01-30T10:59:52;9.80;99.90
8595;DHT22;4335;48.860;9.198;2024-01-30T11:02:24;9.90;99.90
8595;DHT22;4335;48.860;9.198;2024-01-30T11:04:56;10.00;99.90
8595;DHT22;4335;48.860;9.198;2024-01-30T11:07:28;10.10;99.90
8595;DHT22;4335;48.860;9.198;2024-01-30T11:10:00;10.20;99.90
8595;DHT22;4335;48.860;9.198;2024-01-30T11:12:30;10.20;99.90
8595;DHT22;4335;48.860;9.198;2024-01-30T11:15:04;10.20;99.90
8595;DHT22;4335;48.860;9.198;2024-01-30T11:17:52;10.20;99.90
8595;DHT22;4335;48.860;9.198;2024-01-30T11:20:21;10.20;99.90
8595;DHT22;4335;48.860;9.198;2024-01-30T11:22:58;10.30;99.90
8595;DHT22;4335;48.860;9.198;2024-01-30T11:25:34;10.30;99.90
8595;DHT22;4335;48.860;9.198;2024-01-30T11:28:05;10.30;99.90
8595;DHT22;4335;48.860;9.198;2024-01-30T11:30:42;10.30;99.90
8595;DHT22;4335;48.860;9.198;2024-01-30T11:33:10;10.30;99.90
8595;DHT22;4335;48.860;9.198;2024-01-30T11:35:42;10.30;99.90
8595;DHT22;4335;48.860;9.198;2024-01-30T11:38:16;10.30;99.90
8595;DHT22;4335;48.860;9.198;2024-01-30T11:40:46;10.40;99.90
8595;DHT22;4335;48.860;9.198;2024-01-30T11:43:17;10.40;99.90
8595;DHT22;4335;48.860;9.198;2024-01-30T11:45:45;10.40;99.90
8595;DHT22;4335;48.860;9.198;2024-01-30T11:48:13;10.40;99.90
8595;DHT22;4335;48.860;9.198;2024-01-30T11:50:40;10.40;99.90
8595;DHT22;4335;48.860;9.198;2024-01-30T11:53:14;10.50;99.90
8595;DHT22;4335;48.860;9.198;2024-01-30T11:55:41;10.50;99.90
8595;DHT22;4335;48.860;9.198;2024-01-30T11:58:12;10.50;99.90
8595;DHT22;4335;48.860;9.198;2024-01-30T12:00:43;10.60;99.90
8595;DHT22;4335;48.860;9.198;2024-01-30T12:03:11;10.60;99.90
8595;DHT22;4335;48.860;9.198;2024-01-30T12:05:41;10.70;99.90
8595;DHT22;4335;48.860;9.198;2024-01-30T12:08:15;10.90;99.90
8595;DHT22;4335;48.860;9.198;2024-01-30T12:10:42;11.00;99.90
8595;DHT22;4335;48.860;9.198;2024-01-30T12:13:10;11.10;99.90
8595;DHT22;4335;48.860;9.198;2024-01-30T12:15:45;11.10;99.90
8595;DHT22;4335;48.860;9.198;2024-01-30T12:18:12;11.20;99.90
8595;DHT22;4335;48.860;9.198;2024-01-30T12:20:40;11.20;99.90
8595;DHT22;4335;48.860;9.198;2024-01-30T12:23:07;11.20;99.90
8595;DHT22;4335;48.860;9.198;2024-01-30T12:25:34;11.20;99.90
8595;DHT22;4335;48.860;9.198;2024-01-30T12:28:02;11.30;99.90
8595;DHT22;4335;48.860;9.198;2024-01-30T12:30:30;11.30;99.90
8595;DHT22;4335;48.860;9.198;2024-01-30T12:32:59;11.40;99.90
8595;DHT22;4335;48.860;9.198;2024-01-30T12:35:27;11.40;99.90
8595;DHT22;4335;48.860;9.198;2024-01-30T12:37:55;11.40;99.90
8595;DHT22;4335;48.860;9.198;2024-01-30T12:40:23;11.40;99.90
8595;DHT22;4335;48.860;9.198;2024-01-30T12:42:52;11.30;99.90
8595;DHT22;4335;48.860;9.198;2024-01-30T12:45:27;11.30;99.90
8595;DHT22;4335;48.860;9.198;2024-01-30T12:47:58;11.30;99.90
8595;DHT22;4335;48.860;9.198;2024-01-30T12:50:37;11.30;99.90
8595;DHT22;4335;48.860;9.198;2024-01-30T12:53:05;11.30;99.90
8595;DHT22;4335;48.860;9.198;2024-01-30T12:55:33;11.30;99.90
8595;DHT22;4335;48.860;9.198;2024-01-30T12:58:00;11.30;99.90
8595;DHT22;4335;48.860;9.198;2024-01-30T13:00:27;11.30;99.90
8595;DHT22;4335;48.860;9.198;2024-01-30T13:02:54;11.30;99.90
8595;DHT22;4335;48.860;9.198;2024-01-30T13:05:23;11.40;99.90
8595;DHT22;4335;48.860;9.198;2024-01-30T13:07:51;11.50;99.90
8595;DHT22;4335;48.860;9.198;2024-01-30T13:10:19;11.50;99.90
8595;DHT22;4335;48.860;9.198;2024-01-30T13:12:49;11.40;99.90
8595;DHT22;4335;48.860;9.198;2024-01-30T13:15:17;11.40;99.90
8595;DHT22;4335;48.860;9.198;2024-01-30T13:17:46;11.50;99.90
8595;DHT22;4335;48.860;9.198;2024-01-30T13:20:14;11.50;99.90
8595;DHT22;4335;48.860;9.198;2024-01-30T13:22:47;11.50;99.90
8595;DHT22;4335;48.860;9.198;2024-01-30T13:25:15;11.50;99.90
8595;DHT22;4335;48.860;9.198;2024-01-30T13:27:45;11.60;99.90
8595;DHT22;4335;48.860;9.198;2024-01-30T13:30:13;11.60;99.90
8595;DHT22;4335;48.860;9.198;2024-01-30T13:32:40;11.70;99.90
8595;DHT22;4335;48.860;9.198;2024-01-30T13:35:10;11.80;99.90
8595;DHT22;4335;48.860;9.198;2024-01-30T13:37:37;11.80;99.90
8595;DHT22;4335;48.860;9.198;2024-01-30T13:40:13;11.80;99.90
8595;DHT22;4335;48.860;9.198;2024-01-30T13:42:41;11.80;99.90
8595;DHT22;4335;48.860;9.198;2024-01-30T13:45:08;11.80;99.90
8595;DHT22;4335;48.860;9.198;2024-01-30T13:47:37;11.80;99.90
8595;DHT22;4335;48.860;9.198;2024-01-30T13:50:05;11.80;99.90
8595;DHT22;4335;48.860;9.198;2024-01-30T13:52:33;11.70;99.90
8595;DHT22;4335;48.860;9.198;2024-01-30T13:55:01;11.60;99.90
8595;DHT22;4335;48.860;9.198;2024-01-30T13:57:30;11.50;99.90
8595;DHT22;4335;48.860;9.198;2024-01-30T14:00:00;11.50;99.90
8595;DHT22;4335;48.860;9.198;2024-01-30T14:02:29;11.40;99.90
8595;DHT22;4335;48.860;9.198;2024-01-30T14:04:59;11.30;99.90
8595;DHT22;4335;48.860;9.198;2024-01-30T14:07:26;11.20;99.90
8595;DHT22;4335;48.860;9.198;2024-01-30T14:09:54;11.20;99.90
8595;DHT22;4335;48.860;9.198;2024-01-30T14:12:24;11.20;99.90
8595;DHT22;4335;48.860;9.198;2024-01-30T14:14:53;11.20;99.90
8595;DHT22;4335;48.860;9.198;2024-01-30T14:17:26;11.30;99.90
8595;DHT22;4335;48.860;9.198;2024-01-30T14:19:53;11.30;99.90
8595;DHT22;4335;48.860;9.198;2024-01-30T14:22:21;11.30;99.90
8595;DHT22;4335;48.860;9.198;2024-01-30T14:24:51;11.20;99.90
8595;DHT22;4335;48.860;9.198;2024-01-30T14:27:19;11.20;99.90
8595;DHT22;4335;48.860;9.198;2024-01-30T14:29:56;11.20;99.90
8595;DHT22;4335;48.860;9.198;2024-01-30T14:32:26;11.20;99.90
8595;DHT22;4335;48.860;9.198;2024-01-30T14:34:56;11.20;99.90
8595;DHT22;4335;48.860;9.198;2024-01-30T14:37:27;11.10;99.90
8595;DHT22;4335;48.860;9.198;2024-01-30T14:39:56;11.10;99.90
8595;DHT22;4335;48.860;9.198;2024-01-30T14:42:29;11.20;99.90
8595;DHT22;4335;48.860;9.198;2024-01-30T14:45:06;11.20;99.90
8595;DHT22;4335;48.860;9.198;2024-01-30T14:47:33;11.10;99.90
8595;DHT22;4335;48.860;9.198;2024-01-30T14:50:05;11.10;99.90
8595;DHT22;4335;48.860;9.198;2024-01-30T14:52:32;11.10;99.90
8595;DHT22;4335;48.860;9.198;2024-01-30T14:55:00;11.10;99.90
8595;DHT22;4335;48.860;9.198;2024-01-30T14:57:30;11.10;99.90
8595;DHT22;4335;48.860;9.198;2024-01-30T15:00:01;11.00;99.90
8595;DHT22;4335;48.860;9.198;2024-01-30T15:02:30;11.00;99.90
8595;DHT22;4335;48.860;9.198;2024-01-30T15:05:06;11.00;99.90
8595;DHT22;4335;48.860;9.198;2024-01-30T15:07:36;10.90;99.90
8595;DHT22;4335;48.860;9.198;2024-01-30T15:10:07;10.80;99.90
8595;DHT22;4335;48.860;9.198;2024-01-30T15:15:07;10.70;99.90
8595;DHT22;4335;48.860;9.198;2024-01-30T15:17:36;10.70;99.90
8595;DHT22;4335;48.860;9.198;2024-01-30T15:20:04;10.60;99.90
8595;DHT22;4335;48.860;9.198;2024-01-30T15:22:34;10.60;99.90
8595;DHT22;4335;48.860;9.198;2024-01-30T15:25:08;10.50;99.90
8595;DHT22;4335;48.860;9.198;2024-01-30T15:27:36;10.50;99.90
8595;DHT22;4335;48.860;9.198;2024-01-30T15:30:04;10.50;99.90
8595;DHT22;4335;48.860;9.198;2024-01-30T15:32:31;10.50;99.90
8595;DHT22;4335;48.860;9.198;2024-01-30T15:35:03;10.40;99.90
8595;DHT22;4335;48.860;9.198;2024-01-30T15:37:32;10.40;99.90
8595;DHT22;4335;48.860;9.198;2024-01-30T15:40:02;10.40;99.90
8595;DHT22;4335;48.860;9.198;2024-01-30T15:42:34;10.30;99.90
8595;DHT22;4335;48.860;9.198;2024-01-30T15:45:05;10.30;99.90
8595;DHT22;4335;48.860;9.198;2024-01-30T15:47:33;10.20;99.90
8595;DHT22;4335;48.860;9.198;2024-01-30T15:50:06;10.20;99.90
8595;DHT22;4335;48.860;9.198;2024-01-30T15:52:34;10.20;99.90
8595;DHT22;4335;48.860;9.198;2024-01-30T15:55:05;10.20;99.90
8595;DHT22;4335;48.860;9.198;2024-01-30T15:57:39;10.20;99.90
8595;DHT22;4335;48.860;9.198;2024-01-30T16:00:07;10.10;99.90
8595;DHT22;4335;48.860;9.198;2024-01-30T16:02:35;10.20;99.90
8595;DHT22;4335;48.860;9.198;2024-01-30T16:05:07;10.10;99.90
8595;DHT22;4335;48.860;9.198;2024-01-30T16:07:35;10.10;99.90
8595;DHT22;4335;48.860;9.198;2024-01-30T16:10:03;10.10;99.90
8595;DHT22;4335;48.860;9.198;2024-01-30T16:12:33;10.00;99.90
8595;DHT22;4335;48.860;9.198;2024-01-30T16:15:01;10.00;99.90
8595;DHT22;4335;48.860;9.198;2024-01-30T16:17:32;10.00;99.90
8595;DHT22;4335;48.860;9.198;2024-01-30T16:19:59;10.00;99.90
8595;DHT22;4335;48.860;9.198;2024-01-30T16:22:32;10.00;99.90
8595;DHT22;4335;48.860;9.198;2024-01-30T16:25:02;9.90;99.90
8595;DHT22;4335;48.860;9.198;2024-01-30T16:27:42;9.90;99.90
8595;DHT22;4335;48.860;9.198;2024-01-30T16:30:10;9.80;99.90
8595;DHT22;4335;48.860;9.198;2024-01-30T16:32:41;9.80;99.90